sensor_id;sensor_type;location;lat;lon;timestamp;temperature;humidity
2441;DHT22;1231;53.988;9.470;2023-04-26T00:00:33;5.00;81.70
2441;DHT22;1231;53.988;9.470;2023-04-26T00:03:25;5.00;82.10
2441;DHT22;1231;53.988;9.470;2023-04-26T00:09:08;5.10;83.30
2441;DHT22;1231;53.988;9.470;2023-04-26T00:11:59;5.20;83.30
2441;DHT22;1231;53.988;9.470;2023-04-26T00:14:50;5.30;83.10
2441;DHT22;1231;53.988;9.470;2023-04-26T00:17:41;5.20;82.70
2441;DHT22;1231;53.988;9.470;2023-04-26T00:20:32;5.40;82.30
2441;DHT22;1231;53.988;9.470;2023-04-26T00:23:29;5.30;81.90
2441;DHT22;1231;53.988;9.470;2023-04-26T00:26:27;5.30;81.70
2441;DHT22;1231;53.988;9.470;2023-04-26T00:29:17;5.30;81.40
2441;DHT22;1231;53.988;9.470;2023-04-26T00:32:08;5.30;81.30
2441;DHT22;1231;53.988;9.470;2023-04-26T00:34:59;5.30;81.20
2441;DHT22;1231;53.988;9.470;2023-04-26T00:38:00;5.40;81.10
2441;DHT22;1231;53.988;9.470;2023-04-26T00:40:51;5.40;81.20
2441;DHT22;1231;53.988;9.470;2023-04-26T00:43:55;5.30;81.20
2441;DHT22;1231;53.988;9.470;2023-04-26T00:46:46;5.40;81.10
2441;DHT22;1231;53.988;9.470;2023-04-26T00:49:37;5.30;80.90
2441;DHT22;1231;53.988;9.470;2023-04-26T00:52:29;5.30;81.00
2441;DHT22;1231;53.988;9.470;2023-04-26T00:55:21;5.40;81.30
2441;DHT22;1231;53.988;9.470;2023-04-26T00:58:12;5.50;81.30
2441;DHT22;1231;53.988;9.470;2023-04-26T01:01:03;5.60;81.30
2441;DHT22;1231;53.988;9.470;2023-04-26T01:03:54;5.70;80.90
2441;DHT22;1231;53.988;9.470;2023-04-26T01:06:45;5.80;80.50
2441;DHT22;1231;53.988;9.470;2023-04-26T01:09:36;5.90;79.90
2441;DHT22;1231;53.988;9.470;2023-04-26T01:12:28;6.00;79.30
2441;DHT22;1231;53.988;9.470;2023-04-26T01:15:19;6.00;79.00
2441;DHT22;1231;53.988;9.470;2023-04-26T01:18:10;6.00;78.60
2441;DHT22;1231;53.988;9.470;2023-04-26T01:21:01;5.90;78.30
2441;DHT22;1231;53.988;9.470;2023-04-26T01:23:54;5.90;78.10
2441;DHT22;1231;53.988;9.470;2023-04-26T01:26:45;5.80;78.10
2441;DHT22;1231;53.988;9.470;2023-04-26T01:29:36;5.70;78.20
2441;DHT22;1231;53.988;9.470;2023-04-26T01:32:27;5.70;78.10
2441;DHT22;1231;53.988;9.470;2023-04-26T01:35:18;5.60;78.00
2441;DHT22;1231;53.988;9.470;2023-04-26T01:38:09;5.50;78.00
2441;DHT22;1231;53.988;9.470;2023-04-26T01:41:00;5.40;78.30
2441;DHT22;1231;53.988;9.470;2023-04-26T01:43:52;5.30;78.50
2441;DHT22;1231;53.988;9.470;2023-04-26T01:46:43;5.20;78.60
2441;DHT22;1231;53.988;9.470;2023-04-26T01:49:34;5.20;78.60
2441;DHT22;1231;53.988;9.470;2023-04-26T01:52:25;5.00;78.60
2441;DHT22;1231;53.988;9.470;2023-04-26T01:55:16;5.00;78.80
2441;DHT22;1231;53.988;9.470;2023-04-26T01:58:07;4.90;79.10
2441;DHT22;1231;53.988;9.470;2023-04-26T02:01:05;4.90;79.30
2441;DHT22;1231;53.988;9.470;2023-04-26T02:03:56;4.80;79.40
2441;DHT22;1231;53.988;9.470;2023-04-26T02:06:47;4.80;79.50
2441;DHT22;1231;53.988;9.470;2023-04-26T02:09:38;4.70;79.60
2441;DHT22;1231;53.988;9.470;2023-04-26T02:12:29;4.60;79.60
2441;DHT22;1231;53.988;9.470;2023-04-26T02:15:20;4.50;79.70
2441;DHT22;1231;53.988;9.470;2023-04-26T02:18:11;4.50;79.90
2441;DHT22;1231;53.988;9.470;2023-04-26T02:21:07;4.50;80.10
2441;DHT22;1231;53.988;9.470;2023-04-26T02:23:58;4.50;80.20
2441;DHT22;1231;53.988;9.470;2023-04-26T02:26:49;4.50;80.30
2441;DHT22;1231;53.988;9.470;2023-04-26T02:29:41;4.50;80.30
2441;DHT22;1231;53.988;9.470;2023-04-26T02:32:32;4.60;80.60
2441;DHT22;1231;53.988;9.470;2023-04-26T02:35:23;4.70;80.80
2441;DHT22;1231;53.988;9.470;2023-04-26T02:38:14;4.80;81.00
2441;DHT22;1231;53.988;9.470;2023-04-26T02:41:05;4.80;81.10
2441;DHT22;1231;53.988;9.470;2023-04-26T02:43:56;4.80;81.30
2441;DHT22;1231;53.988;9.470;2023-04-26T02:49:38;4.90;82.20
2441;DHT22;1231;53.988;9.470;2023-04-26T02:52:29;5.10;82.30
2441;DHT22;1231;53.988;9.470;2023-04-26T02:55:20;5.20;82.40
2441;DHT22;1231;53.988;9.470;2023-04-26T02:58:11;5.30;82.50
2441;DHT22;1231;53.988;9.470;2023-04-26T03:01:02;5.40;82.50
2441;DHT22;1231;53.988;9.470;2023-04-26T03:06:45;5.60;82.60
2441;DHT22;1231;53.988;9.470;2023-04-26T03:09:36;5.70;82.50
2441;DHT22;1231;53.988;9.470;2023-04-26T03:12:28;5.80;82.40
2441;DHT22;1231;53.988;9.470;2023-04-26T03:15:19;5.80;82.10
2441;DHT22;1231;53.988;9.470;2023-04-26T03:18:10;5.90;81.90
2441;DHT22;1231;53.988;9.470;2023-04-26T03:21:01;5.90;81.80
2441;DHT22;1231;53.988;9.470;2023-04-26T03:23:52;5.90;81.70
2441;DHT22;1231;53.988;9.470;2023-04-26T03:26:42;6.00;81.40
2441;DHT22;1231;53.988;9.470;2023-04-26T03:29:33;5.90;81.20
2441;DHT22;1231;53.988;9.470;2023-04-26T03:32:24;5.90;81.00
2441;DHT22;1231;53.988;9.470;2023-04-26T03:35:15;5.80;80.80
2441;DHT22;1231;53.988;9.470;2023-04-26T03:38:06;5.80;80.80
2441;DHT22;1231;53.988;9.470;2023-04-26T03:40:57;5.70;80.70
2441;DHT22;1231;53.988;9.470;2023-04-26T03:43:48;5.60;80.60
2441;DHT22;1231;53.988;9.470;2023-04-26T03:46:39;5.50;80.50
2441;DHT22;1231;53.988;9.470;2023-04-26T03:49:30;5.50;80.60
2441;DHT22;1231;53.988;9.470;2023-04-26T03:52:21;5.40;80.60
2441;DHT22;1231;53.988;9.470;2023-04-26T03:55:12;5.30;80.50
2441;DHT22;1231;53.988;9.470;2023-04-26T03:58:03;5.20;80.60
2441;DHT22;1231;53.988;9.470;2023-04-26T04:00:57;5.10;80.60
2441;DHT22;1231;53.988;9.470;2023-04-26T04:03:48;5.10;80.60
2441;DHT22;1231;53.988;9.470;2023-04-26T04:06:39;5.00;80.60
2441;DHT22;1231;53.988;9.470;2023-04-26T04:09:30;4.90;80.70
2441;DHT22;1231;53.988;9.470;2023-04-26T04:12:21;4.80;80.80
2441;DHT22;1231;53.988;9.470;2023-04-26T04:15:12;4.70;81.00
2441;DHT22;1231;53.988;9.470;2023-04-26T04:18:03;4.60;80.90
2441;DHT22;1231;53.988;9.470;2023-04-26T04:20:54;4.50;80.80
2441;DHT22;1231;53.988;9.470;2023-04-26T04:23:45;4.50;80.90
2441;DHT22;1231;53.988;9.470;2023-04-26T04:26:36;4.40;81.00
2441;DHT22;1231;53.988;9.470;2023-04-26T04:29:27;4.40;81.00
2441;DHT22;1231;53.988;9.470;2023-04-26T04:32:19;4.40;81.10
2441;DHT22;1231;53.988;9.470;2023-04-26T04:35:09;4.40;81.20
2441;DHT22;1231;53.988;9.470;2023-04-26T04:38:00;4.40;81.30
2441;DHT22;1231;53.988;9.470;2023-04-26T04:40:53;4.40;81.50
2441;DHT22;1231;53.988;9.470;2023-04-26T04:43:43;4.40;81.60
2441;DHT22;1231;53.988;9.470;2023-04-26T04:46:35;4.50;81.70
2441;DHT22;1231;53.988;9.470;2023-04-26T04:49:26;4.60;81.90
2441;DHT22;1231;53.988;9.470;2023-04-26T04:52:16;4.70;82.20
2441;DHT22;1231;53.988;9.470;2023-04-26T04:55:08;4.90;82.60
2441;DHT22;1231;53.988;9.470;2023-04-26T04:57:59;5.20;83.00
2441;DHT22;1231;53.988;9.470;2023-04-26T05:00:51;5.40;83.00
2441;DHT22;1231;53.988;9.470;2023-04-26T05:03:44;5.60;83.00
2441;DHT22;1231;53.988;9.470;2023-04-26T05:06:35;5.70;82.80
2441;DHT22;1231;53.988;9.470;2023-04-26T05:09:25;5.80;82.60
2441;DHT22;1231;53.988;9.470;2023-04-26T05:12:16;5.80;82.40
2441;DHT22;1231;53.988;9.470;2023-04-26T05:15:08;5.90;82.10
2441;DHT22;1231;53.988;9.470;2023-04-26T05:17:58;5.90;81.90
2441;DHT22;1231;53.988;9.470;2023-04-26T05:20:49;6.00;81.60
2441;DHT22;1231;53.988;9.470;2023-04-26T05:23:41;6.00;81.40
2441;DHT22;1231;53.988;9.470;2023-04-26T05:26:34;6.10;81.30
2441;DHT22;1231;53.988;9.470;2023-04-26T05:29:28;6.10;81.00
2441;DHT22;1231;53.988;9.470;2023-04-26T05:32:19;6.20;80.90
2441;DHT22;1231;53.988;9.470;2023-04-26T05:35:10;6.30;80.80
2441;DHT22;1231;53.988;9.470;2023-04-26T05:38:01;6.30;80.10
2441;DHT22;1231;53.988;9.470;2023-04-26T05:40:52;6.30;79.80
2441;DHT22;1231;53.988;9.470;2023-04-26T05:43:43;6.40;79.50
2441;DHT22;1231;53.988;9.470;2023-04-26T05:46:34;6.50;79.50
2441;DHT22;1231;53.988;9.470;2023-04-26T05:49:24;6.60;79.20
2441;DHT22;1231;53.988;9.470;2023-04-26T05:52:16;6.70;78.90
2441;DHT22;1231;53.988;9.470;2023-04-26T05:55:07;6.80;78.50
2441;DHT22;1231;53.988;9.470;2023-04-26T05:57:58;6.90;77.30
2441;DHT22;1231;53.988;9.470;2023-04-26T06:00:49;7.10;77.10
2441;DHT22;1231;53.988;9.470;2023-04-26T06:03:40;7.20;77.00
2441;DHT22;1231;53.988;9.470;2023-04-26T06:06:31;7.30;76.20
2441;DHT22;1231;53.988;9.470;2023-04-26T06:09:22;7.50;75.20
2441;DHT22;1231;53.988;9.470;2023-04-26T06:12:13;7.70;74.50
2441;DHT22;1231;53.988;9.470;2023-04-26T06:15:04;7.90;73.50
2441;DHT22;1231;53.988;9.470;2023-04-26T06:17:56;8.00;73.00
2441;DHT22;1231;53.988;9.470;2023-04-26T06:20:47;8.20;72.80
2441;DHT22;1231;53.988;9.470;2023-04-26T06:23:38;8.50;72.30
2441;DHT22;1231;53.988;9.470;2023-04-26T06:26:28;8.90;71.70
2441;DHT22;1231;53.988;9.470;2023-04-26T06:29:21;9.60;70.30
2441;DHT22;1231;53.988;9.470;2023-04-26T06:32:12;10.70;68.20
2441;DHT22;1231;53.988;9.470;2023-04-26T06:35:03;10.90;67.80
2441;DHT22;1231;53.988;9.470;2023-04-26T06:37:54;12.20;64.00
2441;DHT22;1231;53.988;9.470;2023-04-26T06:40:45;13.00;56.00
2441;DHT22;1231;53.988;9.470;2023-04-26T06:43:36;13.70;55.70
2441;DHT22;1231;53.988;9.470;2023-04-26T06:46:40;14.40;55.20
2441;DHT22;1231;53.988;9.470;2023-04-26T06:49:31;15.20;52.00
2441;DHT22;1231;53.988;9.470;2023-04-26T06:52:21;15.20;52.00
2441;DHT22;1231;53.988;9.470;2023-04-26T06:55:12;15.80;49.90
2441;DHT22;1231;53.988;9.470;2023-04-26T06:58:03;15.80;49.20
2441;DHT22;1231;53.988;9.470;2023-04-26T07:00:54;15.60;48.10
2441;DHT22;1231;53.988;9.470;2023-04-26T07:03:45;15.60;49.10
2441;DHT22;1231;53.988;9.470;2023-04-26T07:06:37;15.30;47.60
2441;DHT22;1231;53.988;9.470;2023-04-26T07:09:28;15.10;49.10
2441;DHT22;1231;53.988;9.470;2023-04-26T07:12:19;14.60;47.80
2441;DHT22;1231;53.988;9.470;2023-04-26T07:15:10;14.10;48.60
2441;DHT22;1231;53.988;9.470;2023-04-26T07:18:01;13.30;49.00
2441;DHT22;1231;53.988;9.470;2023-04-26T07:20:52;12.70;50.60
2441;DHT22;1231;53.988;9.470;2023-04-26T07:23:43;12.60;51.50
2441;DHT22;1231;53.988;9.470;2023-04-26T07:26:34;12.60;52.50
2441;DHT22;1231;53.988;9.470;2023-04-26T07:29:28;12.60;53.10
2441;DHT22;1231;53.988;9.470;2023-04-26T07:32:19;12.20;53.90
2441;DHT22;1231;53.988;9.470;2023-04-26T07:35:10;12.00;55.20
2441;DHT22;1231;53.988;9.470;2023-04-26T07:38:05;12.20;57.90
2441;DHT22;1231;53.988;9.470;2023-04-26T07:40:57;12.40;56.00
2441;DHT22;1231;53.988;9.470;2023-04-26T07:43:48;12.20;56.30
2441;DHT22;1231;53.988;9.470;2023-04-26T07:46:39;12.00;56.80
2441;DHT22;1231;53.988;9.470;2023-04-26T07:49:30;11.60;57.20
2441;DHT22;1231;53.988;9.470;2023-04-26T07:52:21;11.60;57.60
2441;DHT22;1231;53.988;9.470;2023-04-26T07:55:12;11.50;58.80
2441;DHT22;1231;53.988;9.470;2023-04-26T07:58:03;11.60;58.20
2441;DHT22;1231;53.988;9.470;2023-04-26T08:00:54;11.50;59.00
2441;DHT22;1231;53.988;9.470;2023-04-26T08:03:45;11.60;58.90
2441;DHT22;1231;53.988;9.470;2023-04-26T08:06:37;11.80;58.60
2441;DHT22;1231;53.988;9.470;2023-04-26T08:09:29;11.90;59.50
2441;DHT22;1231;53.988;9.470;2023-04-26T08:12:20;12.10;58.70
2441;DHT22;1231;53.988;9.470;2023-04-26T08:15:11;12.20;59.90
2441;DHT22;1231;53.988;9.470;2023-04-26T08:18:02;12.60;59.90
2441;DHT22;1231;53.988;9.470;2023-04-26T08:20:53;12.70;57.80
2441;DHT22;1231;53.988;9.470;2023-04-26T08:23:45;12.70;55.70
2441;DHT22;1231;53.988;9.470;2023-04-26T08:26:36;12.80;54.60
2441;DHT22;1231;53.988;9.470;2023-04-26T08:29:27;13.00;54.20
2441;DHT22;1231;53.988;9.470;2023-04-26T08:32:18;12.80;56.10
2441;DHT22;1231;53.988;9.470;2023-04-26T08:35:09;12.40;57.10
2441;DHT22;1231;53.988;9.470;2023-04-26T08:38:00;11.90;58.70
2441;DHT22;1231;53.988;9.470;2023-04-26T08:40:51;11.70;61.20
2441;DHT22;1231;53.988;9.470;2023-04-26T08:43:43;11.80;60.30
2441;DHT22;1231;53.988;9.470;2023-04-26T08:46:49;11.90;60.20
2441;DHT22;1231;53.988;9.470;2023-04-26T08:49:46;12.10;61.40
2441;DHT22;1231;53.988;9.470;2023-04-26T08:52:42;12.50;60.30
2441;DHT22;1231;53.988;9.470;2023-04-26T08:55:35;13.00;59.00
2441;DHT22;1231;53.988;9.470;2023-04-26T08:58:27;13.00;57.10
2441;DHT22;1231;53.988;9.470;2023-04-26T09:01:18;12.50;56.00
2441;DHT22;1231;53.988;9.470;2023-04-26T09:04:11;11.60;60.00
2441;DHT22;1231;53.988;9.470;2023-04-26T09:07:03;10.70;62.80
2441;DHT22;1231;53.988;9.470;2023-04-26T09:09:57;10.30;64.40
2441;DHT22;1231;53.988;9.470;2023-04-26T09:12:54;10.10;65.80
2441;DHT22;1231;53.988;9.470;2023-04-26T09:15:47;10.10;67.20
2441;DHT22;1231;53.988;9.470;2023-04-26T09:18:48;10.00;66.90
2441;DHT22;1231;53.988;9.470;2023-04-26T09:21:45;10.00;67.20
2441;DHT22;1231;53.988;9.470;2023-04-26T09:24:54;10.10;68.20
2441;DHT22;1231;53.988;9.470;2023-04-26T09:27:45;10.30;67.90
2441;DHT22;1231;53.988;9.470;2023-04-26T09:30:38;10.40;68.70
2441;DHT22;1231;53.988;9.470;2023-04-26T09:33:29;10.70;68.70
2441;DHT22;1231;53.988;9.470;2023-04-26T09:36:20;10.90;68.00
2441;DHT22;1231;53.988;9.470;2023-04-26T09:39:12;10.90;65.10
2441;DHT22;1231;53.988;9.470;2023-04-26T09:42:04;10.90;63.90
2441;DHT22;1231;53.988;9.470;2023-04-26T09:45:05;11.10;65.10
2441;DHT22;1231;53.988;9.470;2023-04-26T09:48:20;11.40;64.00
2441;DHT22;1231;53.988;9.470;2023-04-26T09:51:11;11.60;64.00
2441;DHT22;1231;53.988;9.470;2023-04-26T09:54:02;11.80;62.10
2441;DHT22;1231;53.988;9.470;2023-04-26T09:57:00;12.00;60.70
2441;DHT22;1231;53.988;9.470;2023-04-26T09:59:52;12.20;57.80
2441;DHT22;1231;53.988;9.470;2023-04-26T10:02:44;12.40;58.20
2441;DHT22;1231;53.988;9.470;2023-04-26T10:05:36;12.50;60.40
2441;DHT22;1231;53.988;9.470;2023-04-26T10:08:27;12.90;61.30
2441;DHT22;1231;53.988;9.470;2023-04-26T10:11:20;13.30;58.20
2441;DHT22;1231;53.988;9.470;2023-04-26T10:14:11;13.10;58.90
2441;DHT22;1231;53.988;9.470;2023-04-26T10:17:05;13.10;58.70
2441;DHT22;1231;53.988;9.470;2023-04-26T10:19:57;13.20;59.10
2441;DHT22;1231;53.988;9.470;2023-04-26T10:22:52;13.30;58.70
2441;DHT22;1231;53.988;9.470;2023-04-26T10:25:43;13.40;59.50
2441;DHT22;1231;53.988;9.470;2023-04-26T10:35:10;13.90;57.60
2441;DHT22;1231;53.988;9.470;2023-04-26T10:40:53;14.00;54.40
2441;DHT22;1231;53.988;9.470;2023-04-26T10:43:44;13.70;53.80
2441;DHT22;1231;53.988;9.470;2023-04-26T10:46:37;13.30;52.50
2441;DHT22;1231;53.988;9.470;2023-04-26T10:49:42;12.80;52.90
2441;DHT22;1231;53.988;9.470;2023-04-26T10:55:45;12.00;55.50
2441;DHT22;1231;53.988;9.470;2023-04-26T10:58:40;11.90;57.70
2441;DHT22;1231;53.988;9.470;2023-04-26T11:04:22;12.30;57.60
2441;DHT22;1231;53.988;9.470;2023-04-26T11:07:13;12.40;57.70
2441;DHT22;1231;53.988;9.470;2023-04-26T11:10:07;12.30;59.20
2441;DHT22;1231;53.988;9.470;2023-04-26T11:13:01;11.60;61.70
2441;DHT22;1231;53.988;9.470;2023-04-26T11:15:57;11.20;63.80
2441;DHT22;1231;53.988;9.470;2023-04-26T11:18:53;11.10;65.40
2441;DHT22;1231;53.988;9.470;2023-04-26T11:24:35;10.90;64.50
2441;DHT22;1231;53.988;9.470;2023-04-26T11:27:26;10.70;63.70
2441;DHT22;1231;53.988;9.470;2023-04-26T11:30:18;10.60;63.30
2441;DHT22;1231;53.988;9.470;2023-04-26T11:33:16;10.60;62.70
2441;DHT22;1231;53.988;9.470;2023-04-26T11:36:08;10.80;61.50
2441;DHT22;1231;53.988;9.470;2023-04-26T11:38:59;10.90;61.00
2441;DHT22;1231;53.988;9.470;2023-04-26T11:42:03;10.90;60.40
2441;DHT22;1231;53.988;9.470;2023-04-26T11:44:56;11.10;61.20
2441;DHT22;1231;53.988;9.470;2023-04-26T11:47:47;11.10;61.30
2441;DHT22;1231;53.988;9.470;2023-04-26T11:50:39;11.10;61.80
2441;DHT22;1231;53.988;9.470;2023-04-26T11:53:35;11.10;61.70
2441;DHT22;1231;53.988;9.470;2023-04-26T11:56:27;11.20;62.20
2441;DHT22;1231;53.988;9.470;2023-04-26T11:59:25;11.40;61.30
2441;DHT22;1231;53.988;9.470;2023-04-26T12:02:16;11.60;61.80
2441;DHT22;1231;53.988;9.470;2023-04-26T12:05:07;11.80;59.90
2441;DHT22;1231;53.988;9.470;2023-04-26T12:07:59;12.00;57.70
2441;DHT22;1231;53.988;9.470;2023-04-26T12:10:50;12.30;57.20
2441;DHT22;1231;53.988;9.470;2023-04-26T12:13:47;12.20;58.70
2441;DHT22;1231;53.988;9.470;2023-04-26T12:16:41;11.80;60.30
2441;DHT22;1231;53.988;9.470;2023-04-26T12:22:24;10.70;62.80
2441;DHT22;1231;53.988;9.470;2023-04-26T12:25:18;10.30;62.90
2441;DHT22;1231;53.988;9.470;2023-04-26T12:28:11;10.20;63.70
2441;DHT22;1231;53.988;9.470;2023-04-26T12:31:03;10.30;64.00
2441;DHT22;1231;53.988;9.470;2023-04-26T12:33:54;10.50;63.50
2441;DHT22;1231;53.988;9.470;2023-04-26T12:36:51;10.60;63.30
2441;DHT22;1231;53.988;9.470;2023-04-26T12:39:42;10.80;63.00
2441;DHT22;1231;53.988;9.470;2023-04-26T12:42:34;11.10;62.30
2441;DHT22;1231;53.988;9.470;2023-04-26T12:45:25;11.70;63.20
2441;DHT22;1231;53.988;9.470;2023-04-26T12:48:18;12.30;62.60
2441;DHT22;1231;53.988;9.470;2023-04-26T12:51:09;12.70;61.30
2441;DHT22;1231;53.988;9.470;2023-04-26T12:54:00;13.00;60.50
2441;DHT22;1231;53.988;9.470;2023-04-26T12:56:51;12.90;59.50
2441;DHT22;1231;53.988;9.470;2023-04-26T12:59:42;12.70;57.80
2441;DHT22;1231;53.988;9.470;2023-04-26T13:02:33;12.60;58.00
2441;DHT22;1231;53.988;9.470;2023-04-26T13:05:24;12.60;59.40
2441;DHT22;1231;53.988;9.470;2023-04-26T13:08:15;12.70;59.10
2441;DHT22;1231;53.988;9.470;2023-04-26T13:11:06;12.60;58.20
2441;DHT22;1231;53.988;9.470;2023-04-26T13:13:57;12.70;58.30
2441;DHT22;1231;53.988;9.470;2023-04-26T13:16:49;12.70;56.30
2441;DHT22;1231;53.988;9.470;2023-04-26T13:19:40;12.50;52.70
2441;DHT22;1231;53.988;9.470;2023-04-26T13:22:31;12.30;53.40
2441;DHT22;1231;53.988;9.470;2023-04-26T13:25:22;12.20;55.20
2441;DHT22;1231;53.988;9.470;2023-04-26T13:28:13;12.00;54.60
2441;DHT22;1231;53.988;9.470;2023-04-26T13:31:04;11.90;55.00
2441;DHT22;1231;53.988;9.470;2023-04-26T13:33:56;11.90;54.40
2441;DHT22;1231;53.988;9.470;2023-04-26T13:36:46;11.90;53.50
2441;DHT22;1231;53.988;9.470;2023-04-26T13:39:38;12.00;53.80
2441;DHT22;1231;53.988;9.470;2023-04-26T13:42:29;11.90;53.90
2441;DHT22;1231;53.988;9.470;2023-04-26T13:45:20;11.90;54.10
2441;DHT22;1231;53.988;9.470;2023-04-26T13:51:04;11.70;54.70
2441;DHT22;1231;53.988;9.470;2023-04-26T13:53:55;11.50;54.70
2441;DHT22;1231;53.988;9.470;2023-04-26T13:56:46;11.50;55.80
2441;DHT22;1231;53.988;9.470;2023-04-26T13:59:38;11.50;55.40
2441;DHT22;1231;53.988;9.470;2023-04-26T14:02:30;11.50;54.70
2441;DHT22;1231;53.988;9.470;2023-04-26T14:05:21;11.80;54.40
2441;DHT22;1231;53.988;9.470;2023-04-26T14:08:13;11.90;54.00
2441;DHT22;1231;53.988;9.470;2023-04-26T14:11:04;11.80;51.60
2441;DHT22;1231;53.988;9.470;2023-04-26T14:13:54;11.60;52.20
2441;DHT22;1231;53.988;9.470;2023-04-26T14:16:46;11.50;52.10
2441;DHT22;1231;53.988;9.470;2023-04-26T14:19:37;11.30;52.70
2441;DHT22;1231;53.988;9.470;2023-04-26T14:22:28;11.30;53.60
2441;DHT22;1231;53.988;9.470;2023-04-26T14:25:19;11.20;54.00
2441;DHT22;1231;53.988;9.470;2023-04-26T14:28:10;11.20;54.10
2441;DHT22;1231;53.988;9.470;2023-04-26T14:31:01;11.10;54.00
2441;DHT22;1231;53.988;9.470;2023-04-26T14:33:53;11.20;54.60
2441;DHT22;1231;53.988;9.470;2023-04-26T14:36:44;11.40;54.40
2441;DHT22;1231;53.988;9.470;2023-04-26T14:39:35;11.60;54.20
2441;DHT22;1231;53.988;9.470;2023-04-26T14:42:26;12.00;54.80
2441;DHT22;1231;53.988;9.470;2023-04-26T14:45:17;12.30;55.10
2441;DHT22;1231;53.988;9.470;2023-04-26T14:48:08;12.30;54.90
2441;DHT22;1231;53.988;9.470;2023-04-26T14:51:00;12.20;54.90
2441;DHT22;1231;53.988;9.470;2023-04-26T14:53:51;12.10;56.10
2441;DHT22;1231;53.988;9.470;2023-04-26T14:56:42;11.80;55.20
2441;DHT22;1231;53.988;9.470;2023-04-26T14:59:33;11.60;54.50
2441;DHT22;1231;53.988;9.470;2023-04-26T15:02:24;11.50;54.60
2441;DHT22;1231;53.988;9.470;2023-04-26T15:05:15;11.30;53.90
2441;DHT22;1231;53.988;9.470;2023-04-26T15:08:06;11.20;54.90
2441;DHT22;1231;53.988;9.470;2023-04-26T15:10:57;11.20;54.90
2441;DHT22;1231;53.988;9.470;2023-04-26T15:13:48;11.20;54.70
2441;DHT22;1231;53.988;9.470;2023-04-26T15:16:39;11.30;54.20
2441;DHT22;1231;53.988;9.470;2023-04-26T15:19:30;11.30;54.30
2441;DHT22;1231;53.988;9.470;2023-04-26T15:22:22;11.40;55.10
2441;DHT22;1231;53.988;9.470;2023-04-26T15:25:13;11.40;55.00
2441;DHT22;1231;53.988;9.470;2023-04-26T15:28:04;11.40;54.80
2441;DHT22;1231;53.988;9.470;2023-04-26T15:31:04;11.30;55.90
2441;DHT22;1231;53.988;9.470;2023-04-26T15:33:55;11.30;55.30
2441;DHT22;1231;53.988;9.470;2023-04-26T15:36:46;11.30;55.90
2441;DHT22;1231;53.988;9.470;2023-04-26T15:39:37;11.20;56.10
2441;DHT22;1231;53.988;9.470;2023-04-26T15:42:28;11.10;56.30
2441;DHT22;1231;53.988;9.470;2023-04-26T15:45:19;11.10;56.20
2441;DHT22;1231;53.988;9.470;2023-04-26T15:48:10;11.20;55.80
2441;DHT22;1231;53.988;9.470;2023-04-26T15:51:04;11.30;55.70
2441;DHT22;1231;53.988;9.470;2023-04-26T15:53:55;11.40;56.20
2441;DHT22;1231;53.988;9.470;2023-04-26T15:56:46;11.40;56.60
2441;DHT22;1231;53.988;9.470;2023-04-26T15:59:37;11.50;56.60
2441;DHT22;1231;53.988;9.470;2023-04-26T16:02:28;11.50;56.20
2441;DHT22;1231;53.988;9.470;2023-04-26T16:05:19;11.50;55.10
2441;DHT22;1231;53.988;9.470;2023-04-26T16:08:10;11.60;55.50
2441;DHT22;1231;53.988;9.470;2023-04-26T16:11:01;11.60;55.10
2441;DHT22;1231;53.988;9.470;2023-04-26T16:13:53;11.50;55.10
2441;DHT22;1231;53.988;9.470;2023-04-26T16:16:43;11.30;55.60
2441;DHT22;1231;53.988;9.470;2023-04-26T16:19:35;11.20;55.80
2441;DHT22;1231;53.988;9.470;2023-04-26T16:22:27;10.90;56.10
2441;DHT22;1231;53.988;9.470;2023-04-26T16:25:18;10.70;57.00
2441;DHT22;1231;53.988;9.470;2023-04-26T16:28:09;10.70;58.70
2441;DHT22;1231;53.988;9.470;2023-04-26T16:31:00;10.70;59.30
2441;DHT22;1231;53.988;9.470;2023-04-26T16:33:50;10.70;59.80
2441;DHT22;1231;53.988;9.470;2023-04-26T16:36:42;10.80;60.00
2441;DHT22;1231;53.988;9.470;2023-04-26T16:39:33;10.90;60.00
2441;DHT22;1231;53.988;9.470;2023-04-26T16:42:25;11.00;60.30
2441;DHT22;1231;53.988;9.470;2023-04-26T16:45:16;10.90;60.70
2441;DHT22;1231;53.988;9.470;2023-04-26T16:48:07;10.80;61.00
2441;DHT22;1231;53.988;9.470;2023-04-26T16:50:59;10.70;61.60
2441;DHT22;1231;53.988;9.470;2023-04-26T16:53:50;10.60;62.00
2441;DHT22;1231;53.988;9.470;2023-04-26T16:56:41;10.50;62.40
2441;DHT22;1231;53.988;9.470;2023-04-26T16:59:32;10.40;62.50
2441;DHT22;1231;53.988;9.470;2023-04-26T17:02:23;10.30;62.60
2441;DHT22;1231;53.988;9.470;2023-04-26T17:05:14;10.40;62.70
2441;DHT22;1231;53.988;9.470;2023-04-26T17:08:06;10.40;61.90
2441;DHT22;1231;53.988;9.470;2023-04-26T17:13:48;10.00;59.80
2441;DHT22;1231;53.988;9.470;2023-04-26T17:16:39;10.00;60.60
2441;DHT22;1231;53.988;9.470;2023-04-26T17:19:30;9.90;61.10
2441;DHT22;1231;53.988;9.470;2023-04-26T17:22:21;9.80;61.20
2441;DHT22;1231;53.988;9.470;2023-04-26T17:25:12;9.60;61.70
2441;DHT22;1231;53.988;9.470;2023-04-26T17:28:03;9.50;61.70
2441;DHT22;1231;53.988;9.470;2023-04-26T17:30:55;9.40;62.10
2441;DHT22;1231;53.988;9.470;2023-04-26T17:33:45;9.30;62.40
2441;DHT22;1231;53.988;9.470;2023-04-26T17:36:36;9.30;62.50
2441;DHT22;1231;53.988;9.470;2023-04-26T17:39:27;9.30;62.90
2441;DHT22;1231;53.988;9.470;2023-04-26T17:42:18;9.20;63.10
2441;DHT22;1231;53.988;9.470;2023-04-26T17:45:10;9.10;63.70
2441;DHT22;1231;53.988;9.470;2023-04-26T17:48:02;9.00;64.40
2441;DHT22;1231;53.988;9.470;2023-04-26T17:53:53;9.00;65.20
2441;DHT22;1231;53.988;9.470;2023-04-26T17:56:44;9.00;65.80
2441;DHT22;1231;53.988;9.470;2023-04-26T17:59:35;9.10;66.00
2441;DHT22;1231;53.988;9.470;2023-04-26T18:02:26;9.10;66.30
2441;DHT22;1231;53.988;9.470;2023-04-26T18:05:17;9.20;66.30
2441;DHT22;1231;53.988;9.470;2023-04-26T18:08:08;9.20;66.10
2441;DHT22;1231;53.988;9.470;2023-04-26T18:10:59;9.20;66.30
2441;DHT22;1231;53.988;9.470;2023-04-26T18:13:50;9.30;66.40
2441;DHT22;1231;53.988;9.470;2023-04-26T18:16:41;9.30;66.60
2441;DHT22;1231;53.988;9.470;2023-04-26T18:19:32;9.30;66.70
2441;DHT22;1231;53.988;9.470;2023-04-26T18:22:23;9.20;66.70
2441;DHT22;1231;53.988;9.470;2023-04-26T18:25:21;9.00;66.80
2441;DHT22;1231;53.988;9.470;2023-04-26T18:28:12;8.90;67.20
2441;DHT22;1231;53.988;9.470;2023-04-26T18:31:03;8.70;67.60
2441;DHT22;1231;53.988;9.470;2023-04-26T18:33:54;8.60;67.90
2441;DHT22;1231;53.988;9.470;2023-04-26T18:36:45;8.40;68.20
2441;DHT22;1231;53.988;9.470;2023-04-26T18:39:36;8.30;68.60
2441;DHT22;1231;53.988;9.470;2023-04-26T18:42:27;8.20;69.00
2441;DHT22;1231;53.988;9.470;2023-04-26T18:48:10;8.00;69.50
2441;DHT22;1231;53.988;9.470;2023-04-26T18:51:01;7.90;69.80
2441;DHT22;1231;53.988;9.470;2023-04-26T18:53:52;7.90;69.90
2441;DHT22;1231;53.988;9.470;2023-04-26T18:56:43;7.80;70.30
2441;DHT22;1231;53.988;9.470;2023-04-26T19:02:25;7.50;70.70
2441;DHT22;1231;53.988;9.470;2023-04-26T19:08:08;7.40;71.20
2441;DHT22;1231;53.988;9.470;2023-04-26T19:10:59;7.30;71.50
2441;DHT22;1231;53.988;9.470;2023-04-26T19:13:49;7.20;71.80
2441;DHT22;1231;53.988;9.470;2023-04-26T19:16:40;7.20;72.00
2441;DHT22;1231;53.988;9.470;2023-04-26T19:19:31;7.10;72.40
2441;DHT22;1231;53.988;9.470;2023-04-26T19:22:22;7.10;72.90
2441;DHT22;1231;53.988;9.470;2023-04-26T19:25:13;7.20;73.40
2441;DHT22;1231;53.988;9.470;2023-04-26T19:28:04;7.20;73.50
2441;DHT22;1231;53.988;9.470;2023-04-26T19:30:55;7.20;73.90
2441;DHT22;1231;53.988;9.470;2023-04-26T19:33:46;7.10;74.20
2441;DHT22;1231;53.988;9.470;2023-04-26T19:36:37;7.10;74.50